createdAt,value
2018-05-24T00:00:05.215Z,42
2018-05-24T00:15:04.669Z,42
2018-05-24T00:30:05.128Z,43
2018-05-24T00:45:05.272Z,43
2018-05-24T01:00:05.733Z,42
2018-05-24T01:15:05.216Z,42
2018-05-24T01:30:04.960Z,42
2018-05-24T01:45:05.048Z,42
2018-05-24T02:00:04.622Z,43
2018-05-24T02:15:05.360Z,43
2018-05-24T02:30:04.777Z,42
2018-05-24T02:45:05.159Z,43
2018-05-24T03:00:05.255Z,42
2018-05-24T03:15:05.076Z,43
2018-05-24T03:30:05.159Z,45
2018-05-24T03:45:04.547Z,47
2018-05-24T04:00:05.095Z,46
2018-05-24T04:15:07.756Z,46
2018-05-24T04:30:04.894Z,48
2018-05-24T04:45:05.065Z,55
2018-05-24T05:00:04.687Z,47
2018-05-24T05:15:04.630Z,51
2018-05-24T05:30:04.386Z,49
2018-05-24T05:45:04.581Z,47
2018-05-24T06:00:04.567Z,48
2018-05-24T06:15:04.547Z,48
2018-05-24T06:30:05.235Z,47
2018-05-24T06:45:04.771Z,48
2018-05-24T07:00:04.749Z,47
2018-05-24T07:15:04.805Z,46
2018-05-24T07:30:04.745Z,49
2018-05-24T07:45:05.713Z,46
2018-05-24T08:00:05.021Z,49
2018-05-24T08:15:04.486Z,45
2018-05-24T08:30:04.672Z,48
2018-05-24T08:45:05.098Z,46
2018-05-24T09:00:04.656Z,47
2018-05-24T09:15:05.197Z,49
2018-05-24T09:30:04.908Z,52
2018-05-24T09:45:04.859Z,51
2018-05-24T10:00:05.360Z,51
2018-05-24T10:15:04.896Z,48
2018-05-24T10:30:04.607Z,48
2018-05-24T10:45:04.589Z,49
2018-05-24T11:00:04.511Z,49
2018-05-24T11:15:05.064Z,47
2018-05-24T11:30:05.215Z,50
2018-05-24T11:45:04.671Z,50
2018-05-24T12:00:04.652Z,49
2018-05-24T12:15:05.265Z,50
2018-05-24T12:30:04.983Z,50
2018-05-24T12:45:04.922Z,50
2018-05-24T13:00:04.925Z,46
2018-05-24T13:15:04.607Z,49
2018-05-24T13:30:04.812Z,50
2018-05-24T13:45:04.807Z,50
2018-05-24T14:00:04.759Z,52
2018-05-24T14:15:05.470Z,54
2018-05-24T14:30:05.160Z,53
2018-05-24T14:45:05.120Z,55
2018-05-24T15:00:04.630Z,52
2018-05-24T15:15:04.622Z,53
2018-05-24T15:30:05.718Z,53
2018-05-24T15:45:05.003Z,51
2018-05-24T16:00:05.203Z,52
2018-05-24T16:15:05.134Z,51
2018-05-24T16:30:04.820Z,52
2018-05-24T16:45:05.242Z,54
2018-05-24T17:00:05.285Z,50
2018-05-24T17:15:05.463Z,64
2018-05-24T17:30:04.818Z,52
2018-05-24T17:45:04.511Z,51
2018-05-24T18:00:04.644Z,53
2018-05-24T18:15:04.780Z,57
2018-05-24T18:30:04.857Z,48
2018-05-24T18:45:04.835Z,49
2018-05-24T19:00:06.085Z,46
2018-05-24T19:15:05.443Z,46
2018-05-24T19:30:05.241Z,51
2018-05-24T19:45:04.864Z,53
2018-05-24T20:00:05.442Z,51
2018-05-24T20:15:04.935Z,52
2018-05-24T20:30:04.742Z,52
2018-05-24T20:45:04.946Z,50
2018-05-24T21:00:04.787Z,48
2018-05-24T21:15:04.658Z,49
2018-05-24T21:30:04.474Z,48
2018-05-24T21:45:04.730Z,46
2018-05-24T22:00:05.372Z,47
2018-05-24T22:15:09.541Z,46
2018-05-24T22:30:04.532Z,45
2018-05-24T22:45:05.571Z,45
2018-05-24T23:00:09.466Z,45
2018-05-24T23:15:04.504Z,44
2018-05-24T23:30:05.344Z,44
2018-05-24T23:45:05.005Z,44
